sensor_id;sensor_type;location;lat;lon;timestamp;temperature;humidity
29687;DHT22;16599;47.078;15.536;2023-02-04T00:00:05;2.20;99.90
29687;DHT22;16599;47.078;15.536;2023-02-04T00:02:33;2.10;99.90
29687;DHT22;16599;47.078;15.536;2023-02-04T00:05:00;2.10;99.90
29687;DHT22;16599;47.078;15.536;2023-02-04T00:07:27;2.10;99.90
29687;DHT22;16599;47.078;15.536;2023-02-04T00:09:53;2.50;99.90
29687;DHT22;16599;47.078;15.536;2023-02-04T00:12:21;2.40;99.90
29687;DHT22;16599;47.078;15.536;2023-02-04T00:14:48;2.50;99.90
29687;DHT22;16599;47.078;15.536;2023-02-04T00:17:15;2.50;99.90
29687;DHT22;16599;47.078;15.536;2023-02-04T00:19:42;2.70;99.90
29687;DHT22;16599;47.078;15.536;2023-02-04T00:22:11;2.90;99.90
29687;DHT22;16599;47.078;15.536;2023-02-04T00:24:38;3.50;99.90
29687;DHT22;16599;47.078;15.536;2023-02-04T00:27:07;3.90;99.90
29687;DHT22;16599;47.078;15.536;2023-02-04T00:29:33;3.60;99.90
29687;DHT22;16599;47.078;15.536;2023-02-04T00:32:00;3.30;99.90
29687;DHT22;16599;47.078;15.536;2023-02-04T00:34:29;3.50;99.90
29687;DHT22;16599;47.078;15.536;2023-02-04T00:36:56;3.50;99.90
29687;DHT22;16599;47.078;15.536;2023-02-04T00:39:23;3.80;99.90
29687;DHT22;16599;47.078;15.536;2023-02-04T00:41:50;4.00;99.90
29687;DHT22;16599;47.078;15.536;2023-02-04T00:44:19;3.90;99.90
29687;DHT22;16599;47.078;15.536;2023-02-04T00:46:46;3.70;99.90
29687;DHT22;16599;47.078;15.536;2023-02-04T00:49:14;3.50;99.90
29687;DHT22;16599;47.078;15.536;2023-02-04T00:51:41;3.40;99.90
29687;DHT22;16599;47.078;15.536;2023-02-04T00:54:12;3.20;99.90
29687;DHT22;16599;47.078;15.536;2023-02-04T00:56:43;3.20;99.90
29687;DHT22;16599;47.078;15.536;2023-02-04T00:59:17;3.40;99.90
29687;DHT22;16599;47.078;15.536;2023-02-04T01:01:44;3.60;99.90
29687;DHT22;16599;47.078;15.536;2023-02-04T01:04:14;3.60;99.90
29687;DHT22;16599;47.078;15.536;2023-02-04T01:06:44;4.00;99.90
29687;DHT22;16599;47.078;15.536;2023-02-04T01:09:10;4.20;99.90
29687;DHT22;16599;47.078;15.536;2023-02-04T01:11:40;4.30;99.90
29687;DHT22;16599;47.078;15.536;2023-02-04T01:14:07;4.10;99.90
29687;DHT22;16599;47.078;15.536;2023-02-04T01:16:33;3.80;99.90
29687;DHT22;16599;47.078;15.536;2023-02-04T01:19:02;3.50;99.90
29687;DHT22;16599;47.078;15.536;2023-02-04T01:21:29;3.40;99.90
29687;DHT22;16599;47.078;15.536;2023-02-04T01:23:56;3.30;99.90
29687;DHT22;16599;47.078;15.536;2023-02-04T01:26:28;3.20;99.90
29687;DHT22;16599;47.078;15.536;2023-02-04T01:28:55;3.20;99.90
29687;DHT22;16599;47.078;15.536;2023-02-04T01:31:21;3.20;99.90
29687;DHT22;16599;47.078;15.536;2023-02-04T01:33:48;3.20;99.90
29687;DHT22;16599;47.078;15.536;2023-02-04T01:36:17;3.10;99.90
29687;DHT22;16599;47.078;15.536;2023-02-04T01:38:48;3.10;99.90
29687;DHT22;16599;47.078;15.536;2023-02-04T01:41:15;2.70;99.90
29687;DHT22;16599;47.078;15.536;2023-02-04T01:43:43;3.20;99.90
29687;DHT22;16599;47.078;15.536;2023-02-04T01:46:10;3.40;99.90
29687;DHT22;16599;47.078;15.536;2023-02-04T01:48:37;2.90;99.90
29687;DHT22;16599;47.078;15.536;2023-02-04T01:51:09;2.70;99.90
29687;DHT22;16599;47.078;15.536;2023-02-04T01:53:37;3.00;99.90
29687;DHT22;16599;47.078;15.536;2023-02-04T01:56:18;2.80;99.90
29687;DHT22;16599;47.078;15.536;2023-02-04T01:58:48;2.50;99.90
29687;DHT22;16599;47.078;15.536;2023-02-04T02:01:40;2.60;99.90
29687;DHT22;16599;47.078;15.536;2023-02-04T02:04:16;2.70;99.90
29687;DHT22;16599;47.078;15.536;2023-02-04T02:06:51;3.00;99.90
29687;DHT22;16599;47.078;15.536;2023-02-04T02:09:19;3.10;99.90
29687;DHT22;16599;47.078;15.536;2023-02-04T02:11:46;3.20;99.90
29687;DHT22;16599;47.078;15.536;2023-02-04T02:14:15;4.00;99.90
29687;DHT22;16599;47.078;15.536;2023-02-04T02:16:42;4.30;99.90
29687;DHT22;16599;47.078;15.536;2023-02-04T02:19:13;4.10;99.90
29687;DHT22;16599;47.078;15.536;2023-02-04T02:24:36;3.70;99.90
29687;DHT22;16599;47.078;15.536;2023-02-04T02:27:05;3.90;99.90
29687;DHT22;16599;47.078;15.536;2023-02-04T02:29:35;4.10;99.90
29687;DHT22;16599;47.078;15.536;2023-02-04T02:32:03;4.00;99.90
29687;DHT22;16599;47.078;15.536;2023-02-04T02:34:38;4.20;99.90
29687;DHT22;16599;47.078;15.536;2023-02-04T02:37:06;4.30;99.90
29687;DHT22;16599;47.078;15.536;2023-02-04T02:39:39;4.20;99.90
29687;DHT22;16599;47.078;15.536;2023-02-04T02:42:09;4.30;99.90
29687;DHT22;16599;47.078;15.536;2023-02-04T02:44:36;4.50;99.90
29687;DHT22;16599;47.078;15.536;2023-02-04T02:47:03;4.60;99.90
29687;DHT22;16599;47.078;15.536;2023-02-04T02:49:32;4.60;99.90
29687;DHT22;16599;47.078;15.536;2023-02-04T02:52:00;4.50;99.90
29687;DHT22;16599;47.078;15.536;2023-02-04T02:54:31;4.70;99.90
29687;DHT22;16599;47.078;15.536;2023-02-04T02:57:01;4.50;99.90
29687;DHT22;16599;47.078;15.536;2023-02-04T02:59:28;4.50;99.90
29687;DHT22;16599;47.078;15.536;2023-02-04T03:01:58;4.50;99.90
29687;DHT22;16599;47.078;15.536;2023-02-04T03:04:28;4.20;99.90
29687;DHT22;16599;47.078;15.536;2023-02-04T03:06:55;4.00;99.90
29687;DHT22;16599;47.078;15.536;2023-02-04T03:09:23;4.10;99.90
29687;DHT22;16599;47.078;15.536;2023-02-04T03:11:51;4.10;99.90
29687;DHT22;16599;47.078;15.536;2023-02-04T03:14:18;4.00;99.90
29687;DHT22;16599;47.078;15.536;2023-02-04T03:16:46;3.90;99.90
29687;DHT22;16599;47.078;15.536;2023-02-04T03:19:14;3.80;99.90
29687;DHT22;16599;47.078;15.536;2023-02-04T03:21:41;3.70;99.90
29687;DHT22;16599;47.078;15.536;2023-02-04T03:24:08;4.10;99.90
29687;DHT22;16599;47.078;15.536;2023-02-04T03:26:36;4.10;99.90
29687;DHT22;16599;47.078;15.536;2023-02-04T03:29:06;3.90;99.90
29687;DHT22;16599;47.078;15.536;2023-02-04T03:31:33;3.70;99.90
29687;DHT22;16599;47.078;15.536;2023-02-04T03:34:03;4.00;99.90
29687;DHT22;16599;47.078;15.536;2023-02-04T03:36:30;4.00;99.90
29687;DHT22;16599;47.078;15.536;2023-02-04T03:38:56;3.90;99.90
29687;DHT22;16599;47.078;15.536;2023-02-04T03:41:26;3.80;99.90
29687;DHT22;16599;47.078;15.536;2023-02-04T03:43:52;4.10;99.90
29687;DHT22;16599;47.078;15.536;2023-02-04T03:46:28;4.10;99.90
29687;DHT22;16599;47.078;15.536;2023-02-04T03:48:55;4.20;99.90
29687;DHT22;16599;47.078;15.536;2023-02-04T03:51:22;4.20;99.90
29687;DHT22;16599;47.078;15.536;2023-02-04T03:53:51;4.00;99.90
29687;DHT22;16599;47.078;15.536;2023-02-04T03:56:17;3.90;99.90
29687;DHT22;16599;47.078;15.536;2023-02-04T03:58:44;3.90;99.90
29687;DHT22;16599;47.078;15.536;2023-02-04T04:01:11;4.20;99.90
29687;DHT22;16599;47.078;15.536;2023-02-04T04:03:38;4.00;99.90
29687;DHT22;16599;47.078;15.536;2023-02-04T04:06:07;4.20;99.90
29687;DHT22;16599;47.078;15.536;2023-02-04T04:08:37;4.10;99.90
29687;DHT22;16599;47.078;15.536;2023-02-04T04:11:04;3.90;99.90
29687;DHT22;16599;47.078;15.536;2023-02-04T04:13:33;3.70;99.90
29687;DHT22;16599;47.078;15.536;2023-02-04T04:16:08;4.10;99.90
29687;DHT22;16599;47.078;15.536;2023-02-04T04:18:35;4.10;99.90
29687;DHT22;16599;47.078;15.536;2023-02-04T04:21:02;4.30;99.90
29687;DHT22;16599;47.078;15.536;2023-02-04T04:23:29;4.10;99.90
29687;DHT22;16599;47.078;15.536;2023-02-04T04:25:56;4.10;99.90
29687;DHT22;16599;47.078;15.536;2023-02-04T04:28:23;4.40;99.90
29687;DHT22;16599;47.078;15.536;2023-02-04T04:30:50;4.40;99.90
29687;DHT22;16599;47.078;15.536;2023-02-04T04:33:17;4.30;99.90
29687;DHT22;16599;47.078;15.536;2023-02-04T04:35:43;4.20;99.90
29687;DHT22;16599;47.078;15.536;2023-02-04T04:38:10;4.10;99.90
29687;DHT22;16599;47.078;15.536;2023-02-04T04:40:37;4.20;99.90
29687;DHT22;16599;47.078;15.536;2023-02-04T04:43:06;4.10;99.90
29687;DHT22;16599;47.078;15.536;2023-02-04T04:45:33;4.00;99.90
29687;DHT22;16599;47.078;15.536;2023-02-04T04:48:02;4.00;99.90
29687;DHT22;16599;47.078;15.536;2023-02-04T04:50:29;3.90;99.90
29687;DHT22;16599;47.078;15.536;2023-02-04T04:53:02;4.00;99.90
29687;DHT22;16599;47.078;15.536;2023-02-04T04:55:32;4.00;99.90
29687;DHT22;16599;47.078;15.536;2023-02-04T04:57:59;3.90;99.90
29687;DHT22;16599;47.078;15.536;2023-02-04T05:00:28;3.90;99.90
29687;DHT22;16599;47.078;15.536;2023-02-04T05:02:58;4.20;99.90
29687;DHT22;16599;47.078;15.536;2023-02-04T05:05:27;4.10;99.90
29687;DHT22;16599;47.078;15.536;2023-02-04T05:07:54;4.10;99.90
29687;DHT22;16599;47.078;15.536;2023-02-04T05:10:21;4.20;99.90
29687;DHT22;16599;47.078;15.536;2023-02-04T05:12:49;4.20;99.90
29687;DHT22;16599;47.078;15.536;2023-02-04T05:15:16;4.30;99.90
29687;DHT22;16599;47.078;15.536;2023-02-04T05:17:43;4.10;99.90
29687;DHT22;16599;47.078;15.536;2023-02-04T05:20:10;4.00;99.90
29687;DHT22;16599;47.078;15.536;2023-02-04T05:22:37;4.00;99.90
29687;DHT22;16599;47.078;15.536;2023-02-04T05:25:04;3.90;99.90
29687;DHT22;16599;47.078;15.536;2023-02-04T05:27:32;3.90;99.90
29687;DHT22;16599;47.078;15.536;2023-02-04T05:30:01;3.90;99.90
29687;DHT22;16599;47.078;15.536;2023-02-04T05:32:28;3.90;99.90
29687;DHT22;16599;47.078;15.536;2023-02-04T05:34:58;3.90;99.90
29687;DHT22;16599;47.078;15.536;2023-02-04T05:37:24;3.90;99.90
29687;DHT22;16599;47.078;15.536;2023-02-04T05:39:51;3.80;99.90
29687;DHT22;16599;47.078;15.536;2023-02-04T05:42:18;3.70;99.90
29687;DHT22;16599;47.078;15.536;2023-02-04T05:44:45;3.60;99.90
29687;DHT22;16599;47.078;15.536;2023-02-04T05:47:12;3.60;99.90
29687;DHT22;16599;47.078;15.536;2023-02-04T05:49:38;3.50;99.90
29687;DHT22;16599;47.078;15.536;2023-02-04T05:52:05;3.50;99.90
29687;DHT22;16599;47.078;15.536;2023-02-04T05:54:32;3.40;99.90
29687;DHT22;16599;47.078;15.536;2023-02-04T05:56:59;3.40;99.90
29687;DHT22;16599;47.078;15.536;2023-02-04T05:59:26;3.30;99.90
29687;DHT22;16599;47.078;15.536;2023-02-04T06:01:53;3.20;99.90
29687;DHT22;16599;47.078;15.536;2023-02-04T06:04:20;3.20;99.90
29687;DHT22;16599;47.078;15.536;2023-02-04T06:06:46;3.10;99.90
29687;DHT22;16599;47.078;15.536;2023-02-04T06:09:13;3.10;99.90
29687;DHT22;16599;47.078;15.536;2023-02-04T06:11:40;3.10;99.90
29687;DHT22;16599;47.078;15.536;2023-02-04T06:14:07;3.20;99.90
29687;DHT22;16599;47.078;15.536;2023-02-04T06:16:34;3.10;99.90
29687;DHT22;16599;47.078;15.536;2023-02-04T06:19:01;3.00;99.90
29687;DHT22;16599;47.078;15.536;2023-02-04T06:21:28;3.00;99.90
29687;DHT22;16599;47.078;15.536;2023-02-04T06:23:55;3.20;99.90
29687;DHT22;16599;47.078;15.536;2023-02-04T06:26:22;3.20;99.90
29687;DHT22;16599;47.078;15.536;2023-02-04T06:28:49;3.10;99.90
29687;DHT22;16599;47.078;15.536;2023-02-04T06:31:15;3.20;99.90
29687;DHT22;16599;47.078;15.536;2023-02-04T06:33:42;3.20;99.90
29687;DHT22;16599;47.078;15.536;2023-02-04T06:36:11;3.20;99.90
29687;DHT22;16599;47.078;15.536;2023-02-04T06:38:38;3.30;99.90
29687;DHT22;16599;47.078;15.536;2023-02-04T06:41:05;3.40;99.90
29687;DHT22;16599;47.078;15.536;2023-02-04T06:43:35;3.40;99.90
29687;DHT22;16599;47.078;15.536;2023-02-04T06:46:02;3.50;99.90
29687;DHT22;16599;47.078;15.536;2023-02-04T06:48:32;3.50;99.90
29687;DHT22;16599;47.078;15.536;2023-02-04T06:50:58;3.50;99.90
29687;DHT22;16599;47.078;15.536;2023-02-04T06:53:25;3.40;99.90
29687;DHT22;16599;47.078;15.536;2023-02-04T06:55:52;3.40;99.90
29687;DHT22;16599;47.078;15.536;2023-02-04T06:58:20;3.30;99.90
29687;DHT22;16599;47.078;15.536;2023-02-04T07:00:47;3.20;99.90
29687;DHT22;16599;47.078;15.536;2023-02-04T07:03:14;3.20;99.90
29687;DHT22;16599;47.078;15.536;2023-02-04T07:05:40;3.10;99.90
29687;DHT22;16599;47.078;15.536;2023-02-04T07:08:07;2.90;99.90
29687;DHT22;16599;47.078;15.536;2023-02-04T07:10:34;2.90;99.90
29687;DHT22;16599;47.078;15.536;2023-02-04T07:13:01;2.80;99.90
29687;DHT22;16599;47.078;15.536;2023-02-04T07:15:28;2.70;99.90
29687;DHT22;16599;47.078;15.536;2023-02-04T07:17:55;2.60;99.90
29687;DHT22;16599;47.078;15.536;2023-02-04T07:20:22;2.40;99.90
29687;DHT22;16599;47.078;15.536;2023-02-04T07:22:50;2.40;99.90
29687;DHT22;16599;47.078;15.536;2023-02-04T07:25:20;2.30;99.90
29687;DHT22;16599;47.078;15.536;2023-02-04T07:27:49;2.40;99.90
29687;DHT22;16599;47.078;15.536;2023-02-04T07:30:16;2.30;99.90
29687;DHT22;16599;47.078;15.536;2023-02-04T07:32:43;2.30;99.90
29687;DHT22;16599;47.078;15.536;2023-02-04T07:35:10;2.30;99.90
29687;DHT22;16599;47.078;15.536;2023-02-04T07:37:38;2.50;99.90
29687;DHT22;16599;47.078;15.536;2023-02-04T07:40:05;2.60;99.90
29687;DHT22;16599;47.078;15.536;2023-02-04T07:42:32;2.70;99.90
29687;DHT22;16599;47.078;15.536;2023-02-04T07:45:01;2.70;99.90
29687;DHT22;16599;47.078;15.536;2023-02-04T07:47:28;2.80;99.90
29687;DHT22;16599;47.078;15.536;2023-02-04T07:49:55;2.90;99.90
29687;DHT22;16599;47.078;15.536;2023-02-04T07:52:23;2.90;99.90
29687;DHT22;16599;47.078;15.536;2023-02-04T07:54:51;2.90;99.90
29687;DHT22;16599;47.078;15.536;2023-02-04T07:57:19;2.90;99.90
29687;DHT22;16599;47.078;15.536;2023-02-04T07:59:46;3.00;99.90
29687;DHT22;16599;47.078;15.536;2023-02-04T08:02:13;3.00;99.90
29687;DHT22;16599;47.078;15.536;2023-02-04T08:04:40;3.10;99.90
29687;DHT22;16599;47.078;15.536;2023-02-04T08:07:08;3.20;99.90
29687;DHT22;16599;47.078;15.536;2023-02-04T08:09:38;3.30;99.90
29687;DHT22;16599;47.078;15.536;2023-02-04T08:12:05;3.30;99.90
29687;DHT22;16599;47.078;15.536;2023-02-04T08:14:31;3.10;99.90
29687;DHT22;16599;47.078;15.536;2023-02-04T08:16:58;3.10;99.90
29687;DHT22;16599;47.078;15.536;2023-02-04T08:19:25;3.20;99.90
29687;DHT22;16599;47.078;15.536;2023-02-04T08:21:52;3.20;99.90
29687;DHT22;16599;47.078;15.536;2023-02-04T08:24:19;3.30;99.90
29687;DHT22;16599;47.078;15.536;2023-02-04T08:26:46;3.50;99.90
29687;DHT22;16599;47.078;15.536;2023-02-04T08:29:13;3.70;99.90
29687;DHT22;16599;47.078;15.536;2023-02-04T08:31:40;3.70;99.90
29687;DHT22;16599;47.078;15.536;2023-02-04T08:34:16;3.80;99.90
29687;DHT22;16599;47.078;15.536;2023-02-04T08:36:45;3.80;99.90
29687;DHT22;16599;47.078;15.536;2023-02-04T08:39:22;3.80;99.90
29687;DHT22;16599;47.078;15.536;2023-02-04T08:41:49;3.80;99.90
29687;DHT22;16599;47.078;15.536;2023-02-04T08:44:19;3.60;99.90
29687;DHT22;16599;47.078;15.536;2023-02-04T08:46:46;3.50;99.90
29687;DHT22;16599;47.078;15.536;2023-02-04T08:49:15;3.60;99.90
29687;DHT22;16599;47.078;15.536;2023-02-04T08:51:42;3.60;99.90
29687;DHT22;16599;47.078;15.536;2023-02-04T08:54:12;3.60;99.90
29687;DHT22;16599;47.078;15.536;2023-02-04T08:56:39;3.80;99.90
29687;DHT22;16599;47.078;15.536;2023-02-04T08:59:06;3.80;99.90
29687;DHT22;16599;47.078;15.536;2023-02-04T09:01:33;3.80;99.90
29687;DHT22;16599;47.078;15.536;2023-02-04T09:04:02;3.80;99.90
29687;DHT22;16599;47.078;15.536;2023-02-04T09:06:29;3.90;99.90
29687;DHT22;16599;47.078;15.536;2023-02-04T09:08:56;3.90;99.90
29687;DHT22;16599;47.078;15.536;2023-02-04T09:11:25;4.00;99.80
29687;DHT22;16599;47.078;15.536;2023-02-04T09:13:52;4.20;96.60
29687;DHT22;16599;47.078;15.536;2023-02-04T09:16:21;4.30;95.20
29687;DHT22;16599;47.078;15.536;2023-02-04T09:18:48;4.50;91.60
29687;DHT22;16599;47.078;15.536;2023-02-04T09:21:14;4.30;91.30
29687;DHT22;16599;47.078;15.536;2023-02-04T09:23:41;4.30;90.30
29687;DHT22;16599;47.078;15.536;2023-02-04T09:26:14;4.50;88.80
29687;DHT22;16599;47.078;15.536;2023-02-04T09:28:41;4.50;85.10
29687;DHT22;16599;47.078;15.536;2023-02-04T09:31:08;4.70;89.10
29687;DHT22;16599;47.078;15.536;2023-02-04T09:33:37;4.60;84.50
29687;DHT22;16599;47.078;15.536;2023-02-04T09:36:04;4.60;90.10
29687;DHT22;16599;47.078;15.536;2023-02-04T09:38:31;4.50;87.70
29687;DHT22;16599;47.078;15.536;2023-02-04T09:41:01;4.40;85.40
29687;DHT22;16599;47.078;15.536;2023-02-04T09:43:30;4.50;85.80
29687;DHT22;16599;47.078;15.536;2023-02-04T09:45:59;4.40;90.40
29687;DHT22;16599;47.078;15.536;2023-02-04T09:48:26;4.20;86.80
29687;DHT22;16599;47.078;15.536;2023-02-04T09:51:05;4.10;90.10
29687;DHT22;16599;47.078;15.536;2023-02-04T09:53:33;4.00;89.30
29687;DHT22;16599;47.078;15.536;2023-02-04T09:56:03;4.00;90.30
29687;DHT22;16599;47.078;15.536;2023-02-04T09:58:32;4.00;91.10
29687;DHT22;16599;47.078;15.536;2023-02-04T10:01:17;4.00;90.40
29687;DHT22;16599;47.078;15.536;2023-02-04T10:03:46;3.80;89.80
29687;DHT22;16599;47.078;15.536;2023-02-04T10:06:15;3.90;90.40
29687;DHT22;16599;47.078;15.536;2023-02-04T10:08:46;3.80;90.40
29687;DHT22;16599;47.078;15.536;2023-02-04T10:11:15;3.60;90.70
29687;DHT22;16599;47.078;15.536;2023-02-04T10:13:49;3.40;91.10
29687;DHT22;16599;47.078;15.536;2023-02-04T10:16:33;3.30;91.00
29687;DHT22;16599;47.078;15.536;2023-02-04T10:19:14;3.30;91.50
29687;DHT22;16599;47.078;15.536;2023-02-04T10:21:43;3.40;93.00
29687;DHT22;16599;47.078;15.536;2023-02-04T10:24:22;3.40;92.80
29687;DHT22;16599;47.078;15.536;2023-02-04T10:26:53;3.40;93.00
29687;DHT22;16599;47.078;15.536;2023-02-04T10:29:23;3.30;91.90
29687;DHT22;16599;47.078;15.536;2023-02-04T10:31:51;3.40;93.30
29687;DHT22;16599;47.078;15.536;2023-02-04T10:34:31;3.40;93.10
29687;DHT22;16599;47.078;15.536;2023-02-04T10:36:58;3.20;92.40
29687;DHT22;16599;47.078;15.536;2023-02-04T10:39:28;3.20;92.50
29687;DHT22;16599;47.078;15.536;2023-02-04T10:41:57;3.20;92.60
29687;DHT22;16599;47.078;15.536;2023-02-04T10:44:28;3.20;91.90
29687;DHT22;16599;47.078;15.536;2023-02-04T10:47:24;3.20;92.10
29687;DHT22;16599;47.078;15.536;2023-02-04T10:52:19;3.30;91.50
29687;DHT22;16599;47.078;15.536;2023-02-04T10:54:47;3.20;91.70
29687;DHT22;16599;47.078;15.536;2023-02-04T10:59:56;3.20;91.00
29687;DHT22;16599;47.078;15.536;2023-02-04T11:02:47;3.10;91.90
29687;DHT22;16599;47.078;15.536;2023-02-04T11:05:20;3.20;91.80
29687;DHT22;16599;47.078;15.536;2023-02-04T11:07:47;3.40;91.90
29687;DHT22;16599;47.078;15.536;2023-02-04T11:10:20;3.40;91.70
29687;DHT22;16599;47.078;15.536;2023-02-04T11:15:46;3.50;91.10
29687;DHT22;16599;47.078;15.536;2023-02-04T11:20:51;3.10;89.60
29687;DHT22;16599;47.078;15.536;2023-02-04T11:32:05;3.20;90.40
29687;DHT22;16599;47.078;15.536;2023-02-04T11:34:44;3.10;88.30
29687;DHT22;16599;47.078;15.536;2023-02-04T11:37:15;3.10;88.40
29687;DHT22;16599;47.078;15.536;2023-02-04T11:39:47;3.20;88.70
29687;DHT22;16599;47.078;15.536;2023-02-04T11:42:25;3.40;88.70
29687;DHT22;16599;47.078;15.536;2023-02-04T11:44:59;3.50;90.00
29687;DHT22;16599;47.078;15.536;2023-02-04T11:47:27;3.70;89.40
29687;DHT22;16599;47.078;15.536;2023-02-04T11:50:03;3.60;84.80
29687;DHT22;16599;47.078;15.536;2023-02-04T11:52:34;3.40;83.80
29687;DHT22;16599;47.078;15.536;2023-02-04T11:55:01;3.70;86.90
29687;DHT22;16599;47.078;15.536;2023-02-04T11:57:28;3.80;83.90
29687;DHT22;16599;47.078;15.536;2023-02-04T12:00:03;3.90;83.30
29687;DHT22;16599;47.078;15.536;2023-02-04T12:02:41;3.80;82.50
29687;DHT22;16599;47.078;15.536;2023-02-04T12:05:15;3.60;79.60
29687;DHT22;16599;47.078;15.536;2023-02-04T12:07:43;3.60;79.20
29687;DHT22;16599;47.078;15.536;2023-02-04T12:12:48;3.80;76.00
29687;DHT22;16599;47.078;15.536;2023-02-04T12:15:30;4.10;77.60
29687;DHT22;16599;47.078;15.536;2023-02-04T12:18:06;4.00;73.50
29687;DHT22;16599;47.078;15.536;2023-02-04T12:20:35;4.00;76.00
29687;DHT22;16599;47.078;15.536;2023-02-04T12:23:02;3.90;74.70
29687;DHT22;16599;47.078;15.536;2023-02-04T12:25:31;3.90;73.40
29687;DHT22;16599;47.078;15.536;2023-02-04T12:27:59;4.10;73.60
29687;DHT22;16599;47.078;15.536;2023-02-04T12:30:26;4.10;71.40
29687;DHT22;16599;47.078;15.536;2023-02-04T12:32:53;4.10;72.70
29687;DHT22;16599;47.078;15.536;2023-02-04T12:35:20;3.90;69.60
29687;DHT22;16599;47.078;15.536;2023-02-04T12:37:47;3.80;71.20
29687;DHT22;16599;47.078;15.536;2023-02-04T12:40:18;3.80;71.10
29687;DHT22;16599;47.078;15.536;2023-02-04T12:42:45;3.80;71.80
29687;DHT22;16599;47.078;15.536;2023-02-04T12:45:15;3.90;71.80
29687;DHT22;16599;47.078;15.536;2023-02-04T12:47:43;3.90;71.70
29687;DHT22;16599;47.078;15.536;2023-02-04T12:50:11;4.10;73.10
29687;DHT22;16599;47.078;15.536;2023-02-04T12:52:38;4.10;70.50
29687;DHT22;16599;47.078;15.536;2023-02-04T12:55:08;4.20;70.60
29687;DHT22;16599;47.078;15.536;2023-02-04T12:57:36;4.50;71.20
29687;DHT22;16599;47.078;15.536;2023-02-04T13:00:11;4.40;70.30
29687;DHT22;16599;47.078;15.536;2023-02-04T13:03:06;4.40;72.10
29687;DHT22;16599;47.078;15.536;2023-02-04T13:05:32;4.60;69.30
29687;DHT22;16599;47.078;15.536;2023-02-04T13:08:01;4.40;68.00
29687;DHT22;16599;47.078;15.536;2023-02-04T13:10:28;4.30;68.40
29687;DHT22;16599;47.078;15.536;2023-02-04T13:12:55;4.40;70.40
29687;DHT22;16599;47.078;15.536;2023-02-04T13:15:22;4.20;68.80
29687;DHT22;16599;47.078;15.536;2023-02-04T13:17:49;4.30;71.00
29687;DHT22;16599;47.078;15.536;2023-02-04T13:20:19;4.10;69.10
29687;DHT22;16599;47.078;15.536;2023-02-04T13:22:46;4.00;70.00
29687;DHT22;16599;47.078;15.536;2023-02-04T13:25:13;4.00;69.10
29687;DHT22;16599;47.078;15.536;2023-02-04T13:27:40;3.90;70.30
29687;DHT22;16599;47.078;15.536;2023-02-04T13:30:08;3.90;69.40
29687;DHT22;16599;47.078;15.536;2023-02-04T13:32:38;3.80;71.60
29687;DHT22;16599;47.078;15.536;2023-02-04T13:35:06;3.90;70.10
29687;DHT22;16599;47.078;15.536;2023-02-04T13:37:35;3.90;71.10
29687;DHT22;16599;47.078;15.536;2023-02-04T13:40:05;3.90;70.60
29687;DHT22;16599;47.078;15.536;2023-02-04T13:42:33;3.80;67.90
29687;DHT22;16599;47.078;15.536;2023-02-04T13:45:03;3.70;70.80
29687;DHT22;16599;47.078;15.536;2023-02-04T13:47:30;3.80;72.00
29687;DHT22;16599;47.078;15.536;2023-02-04T13:49:57;3.90;71.60
29687;DHT22;16599;47.078;15.536;2023-02-04T13:52:27;3.80;68.60
29687;DHT22;16599;47.078;15.536;2023-02-04T13:54:54;3.80;71.80
29687;DHT22;16599;47.078;15.536;2023-02-04T13:57:23;3.80;70.00
29687;DHT22;16599;47.078;15.536;2023-02-04T13:59:52;3.70;67.80
29687;DHT22;16599;47.078;15.536;2023-02-04T14:02:19;3.70;68.70
29687;DHT22;16599;47.078;15.536;2023-02-04T14:04:46;3.60;68.90
29687;DHT22;16599;47.078;15.536;2023-02-04T14:07:13;3.70;70.00
29687;DHT22;16599;47.078;15.536;2023-02-04T14:09:40;3.60;70.10
29687;DHT22;16599;47.078;15.536;2023-02-04T14:12:07;3.60;71.10
29687;DHT22;16599;47.078;15.536;2023-02-04T14:14:37;3.70;70.10
29687;DHT22;16599;47.078;15.536;2023-02-04T14:17:03;3.70;71.00
29687;DHT22;16599;47.078;15.536;2023-02-04T14:19:30;3.60;71.20
29687;DHT22;16599;47.078;15.536;2023-02-04T14:21:57;3.60;72.00
29687;DHT22;16599;47.078;15.536;2023-02-04T14:24:24;3.60;71.50
29687;DHT22;16599;47.078;15.536;2023-02-04T14:26:51;3.60;72.00
29687;DHT22;16599;47.078;15.536;2023-02-04T14:29:18;3.50;72.50
29687;DHT22;16599;47.078;15.536;2023-02-04T14:31:45;3.50;70.50
29687;DHT22;16599;47.078;15.536;2023-02-04T14:34:12;3.50;70.10
29687;DHT22;16599;47.078;15.536;2023-02-04T14:36:38;3.50;70.30
29687;DHT22;16599;47.078;15.536;2023-02-04T14:39:05;3.60;71.60
29687;DHT22;16599;47.078;15.536;2023-02-04T14:41:32;3.60;71.40
29687;DHT22;16599;47.078;15.536;2023-02-04T14:43:59;3.50;67.90
29687;DHT22;16599;47.078;15.536;2023-02-04T14:46:26;3.50;69.70
29687;DHT22;16599;47.078;15.536;2023-02-04T14:48:55;3.50;69.30
29687;DHT22;16599;47.078;15.536;2023-02-04T14:51:22;3.60;70.40
29687;DHT22;16599;47.078;15.536;2023-02-04T14:53:49;3.60;70.00
29687;DHT22;16599;47.078;15.536;2023-02-04T14:56:16;3.50;70.50
29687;DHT22;16599;47.078;15.536;2023-02-04T14:58:43;3.50;69.40
29687;DHT22;16599;47.078;15.536;2023-02-04T15:01:10;3.50;72.30
29687;DHT22;16599;47.078;15.536;2023-02-04T15:03:37;3.30;68.90
29687;DHT22;16599;47.078;15.536;2023-02-04T15:06:04;3.30;69.50
29687;DHT22;16599;47.078;15.536;2023-02-04T15:08:30;3.20;69.50
29687;DHT22;16599;47.078;15.536;2023-02-04T15:10:58;3.20;69.00
29687;DHT22;16599;47.078;15.536;2023-02-04T15:13:25;3.20;69.60
29687;DHT22;16599;47.078;15.536;2023-02-04T15:15:53;3.20;69.20
29687;DHT22;16599;47.078;15.536;2023-02-04T15:18:20;3.00;72.00
29687;DHT22;16599;47.078;15.536;2023-02-04T15:20:49;3.00;72.10
29687;DHT22;16599;47.078;15.536;2023-02-04T15:23:16;3.00;73.30
29687;DHT22;16599;47.078;15.536;2023-02-04T15:25:46;3.00;73.00
29687;DHT22;16599;47.078;15.536;2023-02-04T15:28:13;2.80;75.10
29687;DHT22;16599;47.078;15.536;2023-02-04T15:30:43;2.80;74.50
29687;DHT22;16599;47.078;15.536;2023-02-04T15:33:10;2.70;74.90
29687;DHT22;16599;47.078;15.536;2023-02-04T15:35:38;2.70;75.40
29687;DHT22;16599;47.078;15.536;2023-02-04T15:38:05;2.60;74.20
29687;DHT22;16599;47.078;15.536;2023-02-04T15:40:32;2.70;74.80
29687;DHT22;16599;47.078;15.536;2023-02-04T15:42:59;2.50;75.00
29687;DHT22;16599;47.078;15.536;2023-02-04T15:45:26;2.50;74.70
29687;DHT22;16599;47.078;15.536;2023-02-04T15:47:53;2.50;74.70
29687;DHT22;16599;47.078;15.536;2023-02-04T15:50:22;2.60;74.20
29687;DHT22;16599;47.078;15.536;2023-02-04T15:52:49;2.50;75.10
29687;DHT22;16599;47.078;15.536;2023-02-04T15:55:19;2.40;75.10
29687;DHT22;16599;47.078;15.536;2023-02-04T15:57:52;2.30;75.60
29687;DHT22;16599;47.078;15.536;2023-02-04T16:00:20;2.30;75.50
29687;DHT22;16599;47.078;15.536;2023-02-04T16:02:51;2.20;77.00